Flight Track Log - Related Links

Times and Time Zones

All times are in EDT time to prevent confusion due to time zone crossing. See the SKW6492 flight status page for this flight to view local times or setup timezone preferences in your user account.

Time Position Orientation Groundspeed Altitude Reporting Facility
EDT Latitude Longitude Course Direction KTS MPH feet Rate Location/Type
Thu 12:14:41 AM 39.8000 -104.6000 346° North 215 247 7,700  Level Denver TRACON
Thu 12:15:35 AM 39.8500 -104.5333 46° Northeast 249 287 8,900 1,226 Climbing Denver TRACON
Thu 12:16:14 AM 39.8711 -104.4706 66° East 275 316 9,600 1,260 Climbing Denver Center
Thu 12:17:00 AM 40.2708 -104.8029 347° North  Level FlightAware Approximate
Thu 12:17:15 AM 39.9336 -104.4008 41° Northeast 318 366 11,000  Level Denver Center
Thu 12:18:00 AM 40.3763 -104.8365 346° North  Level FlightAware Approximate
Thu 12:18:16 AM 40.0256 -104.4039 359° North 334 384 12,000  Level Denver Center
Thu 12:19:00 AM 40.4815 -104.8716 346° North  Level FlightAware Approximate
Thu 12:19:17 AM 40.1233 -104.4531 339° North 354 407 13,000  Level Denver Center
Thu 12:20:18 AM 40.1939 -104.4950 336° Northwest 364 419 13,800 1,328 Climbing Denver Center
Thu 12:21:19 AM 40.3097 -104.5653 335° Northwest 371 427 15,700 1,574 Climbing Denver Center
Thu 12:22:20 AM 40.4036 -104.6214 336° Northwest 373 429 17,000 1,180 Climbing Denver Center
Thu 12:23:21 AM 40.5053 -104.6817 336° Northwest 373 429 18,100 1,082 Climbing Denver Center
Thu 12:24:22 AM 40.5958 -104.7450 332° Northwest 369 425 19,200 984 Climbing Denver Center
Thu 12:25:23 AM 40.6781 -104.8311 322° Northwest 378 435 20,100 836 Climbing Denver Center
Thu 12:26:24 AM 40.7594 -104.9086 324° Northwest 368 423 20,900 689 Climbing Denver Center
Thu 12:27:25 AM 40.8433 -104.9908 323° Northwest 374 430 21,500 492 Climbing Denver Center
Thu 12:28:26 AM 40.9281 -105.0783 322° Northwest 385 443 21,900 393 Climbing Denver Center
Thu 12:29:27 AM 41.0233 -105.1753 323° Northwest 396 456 22,300 541 Climbing Denver Center
Thu 12:30:28 AM 41.1078 -105.2619 322° Northwest 400 460 23,000 738 Climbing Denver Center
Thu 12:31:29 AM 41.2064 -105.3631 322° Northwest 400 460 23,800 738 Climbing Denver Center
Thu 12:32:30 AM 41.2903 -105.4503 322° Northwest 400 460 24,500 639 Climbing Denver Center
Thu 12:33:31 AM 41.3747 -105.5383 322° Northwest 403 464 25,100 689 Climbing Denver Center
Thu 12:34:32 AM 41.4722 -105.6383 322° Northwest 397 457 25,900 443 Climbing Denver Center
Thu 12:35:33 AM 41.5567 -105.7283 321° Northwest 402 463 26,000 49 Climbing Denver Center
Thu 12:36:34 AM 41.6436 -105.8192 322° Northwest 412 474 26,000  Level Denver Center
Thu 12:37:35 AM 41.7492 -105.9292 322° Northwest 424 488 26,000  Level Denver Center
Thu 12:38:36 AM 41.8411 -106.0269 322° Northwest 435 501 26,000  Level Denver Center
Thu 12:39:37 AM 41.9314 -106.1231 322° Northwest 435 501 26,000  Level Denver Center
Thu 12:40:37 AM 42.0358 -106.2319 322° Northwest 429 494 26,000  Level Denver Center
Thu 12:41:38 AM 42.1242 -106.3272 321° Northwest 425 489 26,000  Level Denver Center
Thu 12:42:39 AM 42.2131 -106.4233 321° Northwest 426 490 26,000  Level Denver Center
Thu 12:43:40 AM 42.3189 -106.5367 322° Northwest 435 501 26,000  Level Denver Center
Thu 12:44:41 AM 42.4131 -106.6364 322° Northwest 440 506 26,000  Level Denver Center
Thu 12:45:41 AM 42.5042 -106.7358 321° Northwest 440 506 26,000  Level Denver Center
Thu 12:46:54 AM 42.6111 -106.8533 321° Northwest 442 509 26,000  Level Denver Center
Thu 12:47:55 AM 42.7183 -106.9714 321° Northwest 443 510 26,000  Level Denver Center
Thu 12:48:56 AM 42.8289 -107.0842 323° Northwest 446 513 26,000  Level Denver Center
Thu 12:49:46 AM 42.9094 -107.1547 327° Northwest 449 517 26,000  Level Salt Lake Center
Thu 12:50:47 AM 43.0258 -107.2581 327° Northwest 446 513 26,000  Level Salt Lake Center
Thu 12:51:48 AM 43.1306 -107.3522 327° Northwest 449 517 26,000  Level Salt Lake Center
Thu 12:52:50 AM 43.2333 -107.4467 326° Northwest 447 514 26,000  Level Salt Lake Center
Thu 12:53:51 AM 43.3389 -107.5394 327° Northwest 450 518 26,000  Level Salt Lake Center
Thu 12:54:52 AM 43.4436 -107.6336 327° Northwest 450 518 26,000  Level Salt Lake Center
Thu 12:55:53 AM 43.5469 -107.7289 326° Northwest 447 514 26,000  Level Salt Lake Center
Thu 12:56:54 AM 43.6511 -107.8242 327° Northwest 449 517 26,000  Level Salt Lake Center
Thu 12:57:55 AM 43.7539 -107.9167 327° Northwest 443 510 26,000 -49 Level Salt Lake Center
Thu 12:58:56 AM 43.8572 -108.0131 326° Northwest 446 513 25,900 -1,289 Descending Salt Lake Center
Thu 12:59:56 AM 43.9606 -108.1075 327° Northwest 445 512 23,400 -2,579 Descending Salt Lake Center
Thu 01:00:57 AM 44.0639 -108.2022 327° Northwest 444 511 20,700 -2,656 Descending Salt Lake Center
Thu 01:01:58 AM 44.1631 -108.2958 326° Northwest 436 502 18,000 -2,557 Descending Salt Lake Center
Thu 01:02:59 AM 44.2603 -108.3867 326° Northwest 428 493 15,500 -2,164 Descending Salt Lake Center
Thu 01:04:00 AM 44.3517 -108.4717 326° Northwest 416 479 13,600 -1,672 Descending Salt Lake Center
Thu 01:05:01 AM 44.4375 -108.5525 326° Northwest 395 455 12,100 -1,574 Descending Salt Lake Center
Thu 01:06:02 AM 44.5375 -108.6467 326° Northwest 376 433 10,400 -1,475 Descending Salt Lake Center
Thu 01:07:03 AM 44.6044 -108.7081 327° Northwest 327 376 9,100 -984 Descending Salt Lake Center
Thu 01:08:04 AM 44.6431 -108.7772 308° West 279 321 8,400 -744 Descending Salt Lake Center
Thu 01:09:04 AM 44.6242 -108.8425 248° West 214 246 7,600 -446 Descending Salt Lake Center
Thu 01:10:05 AM 44.5953 -108.8944 232° Southwest 186 214 7,500 -541 Descending Salt Lake Center
Thu 01:11:06 AM 44.5686 -108.9417 232° Southwest 170 196 6,500 -787 Descending Salt Lake Center
Thu 01:12:07 AM 44.5408 -108.9892 231° Southwest 160 184 5,900 -590 Descending Salt Lake Center

Login

Don't have an account? Register now (free) for customized features, flight alerts, and more!